sensor_id;sensor_type;location;lat;lon;timestamp;temperature;humidity
80279;DHT22;70683;52.492;13.416;2023-09-19T00:00:31;19.80;82.20
80279;DHT22;70683;52.492;13.416;2023-09-19T00:02:59;19.80;82.00
80279;DHT22;70683;52.492;13.416;2023-09-19T00:05:27;19.80;81.90
80279;DHT22;70683;52.492;13.416;2023-09-19T00:07:56;19.80;82.10
80279;DHT22;70683;52.492;13.416;2023-09-19T00:10:26;19.80;82.20
80279;DHT22;70683;52.492;13.416;2023-09-19T00:12:55;19.70;82.20
80279;DHT22;70683;52.492;13.416;2023-09-19T00:15:23;19.70;82.20
80279;DHT22;70683;52.492;13.416;2023-09-19T00:17:49;19.80;82.20
80279;DHT22;70683;52.492;13.416;2023-09-19T00:20:19;19.70;82.20
80279;DHT22;70683;52.492;13.416;2023-09-19T00:22:47;19.70;82.40
80279;DHT22;70683;52.492;13.416;2023-09-19T00:25:15;19.70;82.80
80279;DHT22;70683;52.492;13.416;2023-09-19T00:27:41;19.70;81.80
80279;DHT22;70683;52.492;13.416;2023-09-19T00:30:10;19.70;81.80
80279;DHT22;70683;52.492;13.416;2023-09-19T00:32:42;19.70;82.00
80279;DHT22;70683;52.492;13.416;2023-09-19T00:35:10;19.60;82.10
80279;DHT22;70683;52.492;13.416;2023-09-19T00:37:37;19.60;82.20
80279;DHT22;70683;52.492;13.416;2023-09-19T00:40:07;19.60;81.90
80279;DHT22;70683;52.492;13.416;2023-09-19T00:42:39;19.60;81.80
80279;DHT22;70683;52.492;13.416;2023-09-19T00:45:08;19.70;81.70
80279;DHT22;70683;52.492;13.416;2023-09-19T00:47:39;19.70;81.70
80279;DHT22;70683;52.492;13.416;2023-09-19T00:50:08;19.60;82.00
80279;DHT22;70683;52.492;13.416;2023-09-19T00:52:37;19.60;82.10
80279;DHT22;70683;52.492;13.416;2023-09-19T00:55:08;19.60;81.80
80279;DHT22;70683;52.492;13.416;2023-09-19T00:57:36;19.60;82.00
80279;DHT22;70683;52.492;13.416;2023-09-19T01:00:06;19.60;81.90
80279;DHT22;70683;52.492;13.416;2023-09-19T01:02:35;19.50;81.30
80279;DHT22;70683;52.492;13.416;2023-09-19T01:05:01;19.50;81.90
80279;DHT22;70683;52.492;13.416;2023-09-19T01:07:32;19.50;81.90
80279;DHT22;70683;52.492;13.416;2023-09-19T01:10:03;19.50;82.10
80279;DHT22;70683;52.492;13.416;2023-09-19T01:12:40;19.50;82.10
80279;DHT22;70683;52.492;13.416;2023-09-19T01:15:12;19.40;82.00
80279;DHT22;70683;52.492;13.416;2023-09-19T01:17:46;19.50;82.10
80279;DHT22;70683;52.492;13.416;2023-09-19T01:20:21;19.40;82.20
80279;DHT22;70683;52.492;13.416;2023-09-19T01:26:07;19.40;82.40
80279;DHT22;70683;52.492;13.416;2023-09-19T01:28:45;19.40;82.20
80279;DHT22;70683;52.492;13.416;2023-09-19T01:31:13;19.40;82.50
80279;DHT22;70683;52.492;13.416;2023-09-19T01:36:18;19.40;82.10
80279;DHT22;70683;52.492;13.416;2023-09-19T01:38:45;19.50;82.10
80279;DHT22;70683;52.492;13.416;2023-09-19T01:41:14;19.50;82.00
80279;DHT22;70683;52.492;13.416;2023-09-19T01:43:43;19.50;81.90
80279;DHT22;70683;52.492;13.416;2023-09-19T01:46:21;19.50;81.90
80279;DHT22;70683;52.492;13.416;2023-09-19T01:49:01;19.50;81.80
80279;DHT22;70683;52.492;13.416;2023-09-19T01:51:33;19.50;81.80
80279;DHT22;70683;52.492;13.416;2023-09-19T01:54:04;19.60;81.80
80279;DHT22;70683;52.492;13.416;2023-09-19T01:56:37;19.50;81.80
80279;DHT22;70683;52.492;13.416;2023-09-19T01:59:13;19.60;81.70
80279;DHT22;70683;52.492;13.416;2023-09-19T02:01:40;19.50;81.30
80279;DHT22;70683;52.492;13.416;2023-09-19T02:04:09;19.60;81.10
80279;DHT22;70683;52.492;13.416;2023-09-19T02:06:41;19.60;81.20
80279;DHT22;70683;52.492;13.416;2023-09-19T02:09:08;19.60;81.20
80279;DHT22;70683;52.492;13.416;2023-09-19T02:11:35;19.50;81.10
80279;DHT22;70683;52.492;13.416;2023-09-19T02:14:02;19.60;81.20
80279;DHT22;70683;52.492;13.416;2023-09-19T02:16:30;19.60;81.20
80279;DHT22;70683;52.492;13.416;2023-09-19T02:18:57;19.60;81.30
80279;DHT22;70683;52.492;13.416;2023-09-19T02:21:26;19.50;81.30
80279;DHT22;70683;52.492;13.416;2023-09-19T02:23:55;19.50;81.40
80279;DHT22;70683;52.492;13.416;2023-09-19T02:26:22;19.50;81.50
80279;DHT22;70683;52.492;13.416;2023-09-19T02:28:49;19.40;81.50
80279;DHT22;70683;52.492;13.416;2023-09-19T02:31:16;19.40;81.60
80279;DHT22;70683;52.492;13.416;2023-09-19T02:33:43;19.40;81.40
80279;DHT22;70683;52.492;13.416;2023-09-19T02:36:09;19.40;81.50
80279;DHT22;70683;52.492;13.416;2023-09-19T02:38:36;19.40;81.50
80279;DHT22;70683;52.492;13.416;2023-09-19T02:41:03;19.40;81.20
80279;DHT22;70683;52.492;13.416;2023-09-19T02:43:30;19.40;81.40
80279;DHT22;70683;52.492;13.416;2023-09-19T02:45:56;19.40;81.30
80279;DHT22;70683;52.492;13.416;2023-09-19T02:48:23;19.40;81.50
80279;DHT22;70683;52.492;13.416;2023-09-19T02:50:51;19.40;81.30
80279;DHT22;70683;52.492;13.416;2023-09-19T02:53:18;19.50;81.10
80279;DHT22;70683;52.492;13.416;2023-09-19T02:55:46;19.40;80.80
80279;DHT22;70683;52.492;13.416;2023-09-19T02:58:14;19.40;81.20
80279;DHT22;70683;52.492;13.416;2023-09-19T03:00:41;19.40;81.10
80279;DHT22;70683;52.492;13.416;2023-09-19T03:03:10;19.50;81.20
80279;DHT22;70683;52.492;13.416;2023-09-19T03:05:37;19.50;81.20
80279;DHT22;70683;52.492;13.416;2023-09-19T03:08:04;19.40;81.10
80279;DHT22;70683;52.492;13.416;2023-09-19T03:10:32;19.40;80.90
80279;DHT22;70683;52.492;13.416;2023-09-19T03:12:58;19.50;80.90
80279;DHT22;70683;52.492;13.416;2023-09-19T03:15:26;19.60;80.70
80279;DHT22;70683;52.492;13.416;2023-09-19T03:17:52;19.50;80.40
80279;DHT22;70683;52.492;13.416;2023-09-19T03:20:20;19.50;80.30
80279;DHT22;70683;52.492;13.416;2023-09-19T03:22:47;19.50;80.50
80279;DHT22;70683;52.492;13.416;2023-09-19T03:25:14;19.50;80.40
80279;DHT22;70683;52.492;13.416;2023-09-19T03:27:41;19.50;80.30
80279;DHT22;70683;52.492;13.416;2023-09-19T03:30:08;19.40;80.20
80279;DHT22;70683;52.492;13.416;2023-09-19T03:32:35;19.50;80.10
80279;DHT22;70683;52.492;13.416;2023-09-19T03:35:03;19.50;79.60
80279;DHT22;70683;52.492;13.416;2023-09-19T03:37:32;19.50;80.20
80279;DHT22;70683;52.492;13.416;2023-09-19T03:39:59;19.40;79.50
80279;DHT22;70683;52.492;13.416;2023-09-19T03:42:28;19.40;79.50
80279;DHT22;70683;52.492;13.416;2023-09-19T03:44:55;19.40;79.50
80279;DHT22;70683;52.492;13.416;2023-09-19T03:47:21;19.40;79.40
80279;DHT22;70683;52.492;13.416;2023-09-19T03:49:48;19.40;79.00
80279;DHT22;70683;52.492;13.416;2023-09-19T03:52:14;19.40;78.80
80279;DHT22;70683;52.492;13.416;2023-09-19T03:54:42;19.40;78.50
80279;DHT22;70683;52.492;13.416;2023-09-19T03:57:09;19.50;78.40
80279;DHT22;70683;52.492;13.416;2023-09-19T03:59:35;19.40;78.40
80279;DHT22;70683;52.492;13.416;2023-09-19T04:02:02;19.40;78.40
80279;DHT22;70683;52.492;13.416;2023-09-19T04:04:30;19.40;78.40
80279;DHT22;70683;52.492;13.416;2023-09-19T04:06:57;19.40;78.20
80279;DHT22;70683;52.492;13.416;2023-09-19T04:09:24;19.40;77.10
80279;DHT22;70683;52.492;13.416;2023-09-19T04:11:51;19.40;76.80
80279;DHT22;70683;52.492;13.416;2023-09-19T04:14:17;19.50;76.50
80279;DHT22;70683;52.492;13.416;2023-09-19T04:16:44;19.50;76.10
80279;DHT22;70683;52.492;13.416;2023-09-19T04:19:11;19.40;76.00
80279;DHT22;70683;52.492;13.416;2023-09-19T04:21:37;19.40;75.50
80279;DHT22;70683;52.492;13.416;2023-09-19T04:24:04;19.40;74.90
80279;DHT22;70683;52.492;13.416;2023-09-19T04:26:31;19.30;74.80
80279;DHT22;70683;52.492;13.416;2023-09-19T04:28:58;19.30;74.50
80279;DHT22;70683;52.492;13.416;2023-09-19T04:31:25;19.30;75.00
80279;DHT22;70683;52.492;13.416;2023-09-19T04:33:52;19.20;74.40
80279;DHT22;70683;52.492;13.416;2023-09-19T04:36:18;19.20;73.90
80279;DHT22;70683;52.492;13.416;2023-09-19T04:38:47;19.30;73.90
80279;DHT22;70683;52.492;13.416;2023-09-19T04:41:13;19.20;74.20
80279;DHT22;70683;52.492;13.416;2023-09-19T04:43:41;19.20;74.50
80279;DHT22;70683;52.492;13.416;2023-09-19T04:46:08;19.20;74.40
80279;DHT22;70683;52.492;13.416;2023-09-19T04:48:34;19.20;74.60
80279;DHT22;70683;52.492;13.416;2023-09-19T04:51:01;19.20;74.40
80279;DHT22;70683;52.492;13.416;2023-09-19T04:53:29;19.20;74.50
80279;DHT22;70683;52.492;13.416;2023-09-19T04:55:55;19.20;74.80
80279;DHT22;70683;52.492;13.416;2023-09-19T04:58:22;19.20;75.10
80279;DHT22;70683;52.492;13.416;2023-09-19T05:00:49;19.20;74.30
80279;DHT22;70683;52.492;13.416;2023-09-19T05:03:17;19.20;74.10
80279;DHT22;70683;52.492;13.416;2023-09-19T05:05:46;19.20;73.40
80279;DHT22;70683;52.492;13.416;2023-09-19T05:08:12;19.20;73.30
80279;DHT22;70683;52.492;13.416;2023-09-19T05:10:40;19.20;73.10
80279;DHT22;70683;52.492;13.416;2023-09-19T05:13:07;19.30;73.10
80279;DHT22;70683;52.492;13.416;2023-09-19T05:15:34;19.20;72.80
80279;DHT22;70683;52.492;13.416;2023-09-19T05:18:01;19.20;73.60
80279;DHT22;70683;52.492;13.416;2023-09-19T05:20:29;19.20;72.90
80279;DHT22;70683;52.492;13.416;2023-09-19T05:23:04;19.10;73.20
80279;DHT22;70683;52.492;13.416;2023-09-19T05:25:34;19.10;73.20
80279;DHT22;70683;52.492;13.416;2023-09-19T05:28:04;19.10;73.00
80279;DHT22;70683;52.492;13.416;2023-09-19T05:30:32;19.10;72.60
80279;DHT22;70683;52.492;13.416;2023-09-19T05:32:59;19.10;72.80
80279;DHT22;70683;52.492;13.416;2023-09-19T05:35:26;19.10;72.80
80279;DHT22;70683;52.492;13.416;2023-09-19T05:37:53;19.10;72.80
80279;DHT22;70683;52.492;13.416;2023-09-19T05:40:22;19.20;73.10
80279;DHT22;70683;52.492;13.416;2023-09-19T05:42:49;19.20;72.60
80279;DHT22;70683;52.492;13.416;2023-09-19T05:45:17;19.20;72.20
80279;DHT22;70683;52.492;13.416;2023-09-19T05:47:49;19.20;71.80
80279;DHT22;70683;52.492;13.416;2023-09-19T05:50:17;19.20;72.10
80279;DHT22;70683;52.492;13.416;2023-09-19T05:52:53;19.20;72.10
80279;DHT22;70683;52.492;13.416;2023-09-19T05:55:22;19.20;71.90
80279;DHT22;70683;52.492;13.416;2023-09-19T05:57:51;19.20;72.00
80279;DHT22;70683;52.492;13.416;2023-09-19T06:00:19;19.10;72.10
80279;DHT22;70683;52.492;13.416;2023-09-19T06:02:51;19.10;72.90
80279;DHT22;70683;52.492;13.416;2023-09-19T06:05:19;19.10;72.10
80279;DHT22;70683;52.492;13.416;2023-09-19T06:07:46;19.10;72.60
80279;DHT22;70683;52.492;13.416;2023-09-19T06:10:13;19.10;72.00
80279;DHT22;70683;52.492;13.416;2023-09-19T06:12:42;19.10;71.90
80279;DHT22;70683;52.492;13.416;2023-09-19T06:15:11;19.20;72.00
80279;DHT22;70683;52.492;13.416;2023-09-19T06:17:43;19.10;72.40
80279;DHT22;70683;52.492;13.416;2023-09-19T06:20:10;19.20;72.50
80279;DHT22;70683;52.492;13.416;2023-09-19T06:22:42;19.20;72.20
80279;DHT22;70683;52.492;13.416;2023-09-19T06:25:13;19.20;71.80
80279;DHT22;70683;52.492;13.416;2023-09-19T06:27:44;19.20;71.80
80279;DHT22;70683;52.492;13.416;2023-09-19T06:30:11;19.30;71.40
80279;DHT22;70683;52.492;13.416;2023-09-19T06:32:40;19.30;71.40
80279;DHT22;70683;52.492;13.416;2023-09-19T06:35:08;19.30;71.00
80279;DHT22;70683;52.492;13.416;2023-09-19T06:37:38;19.30;71.10
80279;DHT22;70683;52.492;13.416;2023-09-19T06:40:07;19.30;70.90
80279;DHT22;70683;52.492;13.416;2023-09-19T06:42:36;19.40;71.10
80279;DHT22;70683;52.492;13.416;2023-09-19T06:45:05;19.50;70.50
80279;DHT22;70683;52.492;13.416;2023-09-19T06:47:31;19.50;70.70
80279;DHT22;70683;52.492;13.416;2023-09-19T06:49:58;19.60;70.10
80279;DHT22;70683;52.492;13.416;2023-09-19T06:52:25;19.70;69.80
80279;DHT22;70683;52.492;13.416;2023-09-19T06:54:53;19.80;69.50
80279;DHT22;70683;52.492;13.416;2023-09-19T06:57:20;19.90;68.90
80279;DHT22;70683;52.492;13.416;2023-09-19T06:59:47;20.00;68.70
80279;DHT22;70683;52.492;13.416;2023-09-19T07:02:13;20.10;68.30
80279;DHT22;70683;52.492;13.416;2023-09-19T07:04:40;20.30;68.20
80279;DHT22;70683;52.492;13.416;2023-09-19T07:07:07;20.50;67.40
80279;DHT22;70683;52.492;13.416;2023-09-19T07:09:35;20.70;66.60
80279;DHT22;70683;52.492;13.416;2023-09-19T07:12:01;21.00;65.80
80279;DHT22;70683;52.492;13.416;2023-09-19T07:14:28;21.40;63.10
80279;DHT22;70683;52.492;13.416;2023-09-19T07:16:56;21.70;62.20
80279;DHT22;70683;52.492;13.416;2023-09-19T07:19:23;22.10;61.00
80279;DHT22;70683;52.492;13.416;2023-09-19T07:21:49;22.40;59.60
80279;DHT22;70683;52.492;13.416;2023-09-19T07:24:16;22.40;59.10
80279;DHT22;70683;52.492;13.416;2023-09-19T07:26:42;22.50;57.70
80279;DHT22;70683;52.492;13.416;2023-09-19T07:29:09;22.60;57.90
80279;DHT22;70683;52.492;13.416;2023-09-19T07:31:36;22.80;57.50
80279;DHT22;70683;52.492;13.416;2023-09-19T07:34:02;22.70;56.40
80279;DHT22;70683;52.492;13.416;2023-09-19T07:36:30;22.60;56.50
80279;DHT22;70683;52.492;13.416;2023-09-19T07:38:56;22.60;56.20
80279;DHT22;70683;52.492;13.416;2023-09-19T07:41:24;22.70;57.00
80279;DHT22;70683;52.492;13.416;2023-09-19T07:43:51;22.90;56.50
80279;DHT22;70683;52.492;13.416;2023-09-19T07:46:18;23.30;55.90
80279;DHT22;70683;52.492;13.416;2023-09-19T07:48:44;23.60;54.60
80279;DHT22;70683;52.492;13.416;2023-09-19T07:51:13;23.70;53.50
80279;DHT22;70683;52.492;13.416;2023-09-19T07:53:42;23.60;53.10
80279;DHT22;70683;52.492;13.416;2023-09-19T07:56:09;23.50;53.60
80279;DHT22;70683;52.492;13.416;2023-09-19T07:58:39;23.50;52.80
80279;DHT22;70683;52.492;13.416;2023-09-19T08:01:09;23.70;52.20
80279;DHT22;70683;52.492;13.416;2023-09-19T08:03:37;23.90;51.70
80279;DHT22;70683;52.492;13.416;2023-09-19T08:06:06;23.90;51.10
80279;DHT22;70683;52.492;13.416;2023-09-19T08:08:34;23.90;51.10
80279;DHT22;70683;52.492;13.416;2023-09-19T08:11:05;24.10;51.20
80279;DHT22;70683;52.492;13.416;2023-09-19T08:13:39;24.30;50.20
80279;DHT22;70683;52.492;13.416;2023-09-19T08:16:10;24.20;50.30
80279;DHT22;70683;52.492;13.416;2023-09-19T08:18:37;24.30;50.10
80279;DHT22;70683;52.492;13.416;2023-09-19T08:21:07;25.00;48.00
80279;DHT22;70683;52.492;13.416;2023-09-19T08:23:37;25.30;46.40
80279;DHT22;70683;52.492;13.416;2023-09-19T08:26:04;25.20;46.60
80279;DHT22;70683;52.492;13.416;2023-09-19T08:28:35;25.00;47.20
80279;DHT22;70683;52.492;13.416;2023-09-19T08:31:04;24.50;48.20
80279;DHT22;70683;52.492;13.416;2023-09-19T08:33:33;24.20;48.90
80279;DHT22;70683;52.492;13.416;2023-09-19T08:36:00;24.10;49.20
80279;DHT22;70683;52.492;13.416;2023-09-19T08:38:27;24.20;49.30
80279;DHT22;70683;52.492;13.416;2023-09-19T08:40:58;24.20;48.30
80279;DHT22;70683;52.492;13.416;2023-09-19T08:43:26;24.40;48.60
80279;DHT22;70683;52.492;13.416;2023-09-19T08:46:02;25.10;47.30
80279;DHT22;70683;52.492;13.416;2023-09-19T08:48:27;26.10;45.20
80279;DHT22;70683;52.492;13.416;2023-09-19T08:51:00;26.70;43.40
80279;DHT22;70683;52.492;13.416;2023-09-19T08:53:39;26.80;43.00
80279;DHT22;70683;52.492;13.416;2023-09-19T08:56:06;27.30;41.90
80279;DHT22;70683;52.492;13.416;2023-09-19T08:58:44;27.60;41.20
80279;DHT22;70683;52.492;13.416;2023-09-19T09:01:08;27.90;40.70
80279;DHT22;70683;52.492;13.416;2023-09-19T09:03:40;28.40;39.60
80279;DHT22;70683;52.492;13.416;2023-09-19T09:06:08;28.80;39.40
80279;DHT22;70683;52.492;13.416;2023-09-19T09:08:37;29.00;37.90
80279;DHT22;70683;52.492;13.416;2023-09-19T09:11:06;28.90;37.20
80279;DHT22;70683;52.492;13.416;2023-09-19T09:13:36;28.80;37.20
80279;DHT22;70683;52.492;13.416;2023-09-19T09:16:03;29.50;36.40
80279;DHT22;70683;52.492;13.416;2023-09-19T09:18:30;30.20;35.80
80279;DHT22;70683;52.492;13.416;2023-09-19T09:20:57;30.70;34.30
80279;DHT22;70683;52.492;13.416;2023-09-19T09:23:23;31.10;32.90
80279;DHT22;70683;52.492;13.416;2023-09-19T09:25:53;31.60;32.50
80279;DHT22;70683;52.492;13.416;2023-09-19T09:28:24;31.70;32.30
80279;DHT22;70683;52.492;13.416;2023-09-19T09:30:52;31.80;30.60
80279;DHT22;70683;52.492;13.416;2023-09-19T09:33:19;31.50;30.70
80279;DHT22;70683;52.492;13.416;2023-09-19T09:35:48;31.20;30.80
80279;DHT22;70683;52.492;13.416;2023-09-19T09:38:20;31.00;31.80
80279;DHT22;70683;52.492;13.416;2023-09-19T09:40:49;30.80;32.00
80279;DHT22;70683;52.492;13.416;2023-09-19T09:43:35;31.10;31.90
80279;DHT22;70683;52.492;13.416;2023-09-19T09:46:08;31.40;30.70
80279;DHT22;70683;52.492;13.416;2023-09-19T09:48:59;31.70;30.40
80279;DHT22;70683;52.492;13.416;2023-09-19T09:51:31;31.90;29.90
80279;DHT22;70683;52.492;13.416;2023-09-19T09:54:11;31.90;29.40
80279;DHT22;70683;52.492;13.416;2023-09-19T09:59:17;31.90;29.70
80279;DHT22;70683;52.492;13.416;2023-09-19T10:01:47;32.30;29.00
80279;DHT22;70683;52.492;13.416;2023-09-19T10:04:30;32.60;28.70
80279;DHT22;70683;52.492;13.416;2023-09-19T10:07:01;33.00;28.60
80279;DHT22;70683;52.492;13.416;2023-09-19T10:09:29;33.40;27.20
80279;DHT22;70683;52.492;13.416;2023-09-19T10:12:04;33.40;26.60
80279;DHT22;70683;52.492;13.416;2023-09-19T10:14:35;33.50;26.40
80279;DHT22;70683;52.492;13.416;2023-09-19T10:17:05;33.90;26.20
80279;DHT22;70683;52.492;13.416;2023-09-19T10:19:37;34.00;26.00
80279;DHT22;70683;52.492;13.416;2023-09-19T10:22:05;34.20;25.90
80279;DHT22;70683;52.492;13.416;2023-09-19T10:24:35;34.50;25.80
80279;DHT22;70683;52.492;13.416;2023-09-19T10:27:06;34.40;25.40
80279;DHT22;70683;52.492;13.416;2023-09-19T10:29:36;34.50;25.30
80279;DHT22;70683;52.492;13.416;2023-09-19T10:32:06;34.70;25.60
80279;DHT22;70683;52.492;13.416;2023-09-19T10:34:36;34.90;25.30
80279;DHT22;70683;52.492;13.416;2023-09-19T10:37:04;35.00;24.80
80279;DHT22;70683;52.492;13.416;2023-09-19T10:39:35;34.30;24.80
80279;DHT22;70683;52.492;13.416;2023-09-19T10:42:06;33.80;24.90
80279;DHT22;70683;52.492;13.416;2023-09-19T10:44:37;33.40;25.70
80279;DHT22;70683;52.492;13.416;2023-09-19T10:47:06;32.70;26.40
80279;DHT22;70683;52.492;13.416;2023-09-19T10:49:33;31.90;27.40
80279;DHT22;70683;52.492;13.416;2023-09-19T10:52:01;31.00;28.10
80279;DHT22;70683;52.492;13.416;2023-09-19T10:54:32;30.40;29.00
80279;DHT22;70683;52.492;13.416;2023-09-19T10:57:00;30.00;29.30
80279;DHT22;70683;52.492;13.416;2023-09-19T10:59:30;30.00;28.40
80279;DHT22;70683;52.492;13.416;2023-09-19T11:01:58;30.20;28.80
80279;DHT22;70683;52.492;13.416;2023-09-19T11:04:29;30.40;28.80
80279;DHT22;70683;52.492;13.416;2023-09-19T11:07:03;30.10;28.50
80279;DHT22;70683;52.492;13.416;2023-09-19T11:09:49;29.60;28.60
80279;DHT22;70683;52.492;13.416;2023-09-19T11:12:47;29.10;29.50
80279;DHT22;70683;52.492;13.416;2023-09-19T11:14:53;29.00;29.80
80279;DHT22;70683;52.492;13.416;2023-09-19T11:17:38;28.90;30.30
80279;DHT22;70683;52.492;13.416;2023-09-19T11:20:22;28.80;30.30
80279;DHT22;70683;52.492;13.416;2023-09-19T11:25:45;28.90;29.70
80279;DHT22;70683;52.492;13.416;2023-09-19T11:28:29;28.80;30.00
80279;DHT22;70683;52.492;13.416;2023-09-19T11:30:57;29.10;29.90
80279;DHT22;70683;52.492;13.416;2023-09-19T11:33:28;29.50;29.10
80279;DHT22;70683;52.492;13.416;2023-09-19T11:36:15;29.60;29.40
80279;DHT22;70683;52.492;13.416;2023-09-19T11:38:59;29.70;29.10
80279;DHT22;70683;52.492;13.416;2023-09-19T11:41:36;29.90;28.90
80279;DHT22;70683;52.492;13.416;2023-09-19T11:47:06;30.10;28.10
80279;DHT22;70683;52.492;13.416;2023-09-19T11:49:32;29.70;28.70
80279;DHT22;70683;52.492;13.416;2023-09-19T11:52:01;29.50;29.20
80279;DHT22;70683;52.492;13.416;2023-09-19T11:54:30;29.20;29.60
80279;DHT22;70683;52.492;13.416;2023-09-19T11:56:59;29.20;30.00
80279;DHT22;70683;52.492;13.416;2023-09-19T11:59:28;29.20;30.10
80279;DHT22;70683;52.492;13.416;2023-09-19T12:02:03;29.10;29.80
80279;DHT22;70683;52.492;13.416;2023-09-19T12:04:34;28.90;29.40
80279;DHT22;70683;52.492;13.416;2023-09-19T12:07:12;28.60;30.20
80279;DHT22;70683;52.492;13.416;2023-09-19T12:09:43;28.20;30.60
80279;DHT22;70683;52.492;13.416;2023-09-19T12:12:11;27.80;31.10
80279;DHT22;70683;52.492;13.416;2023-09-19T12:14:38;27.40;32.00
80279;DHT22;70683;52.492;13.416;2023-09-19T12:17:07;27.20;31.50
80279;DHT22;70683;52.492;13.416;2023-09-19T12:19:34;27.10;32.30
80279;DHT22;70683;52.492;13.416;2023-09-19T12:22:02;26.90;33.30
80279;DHT22;70683;52.492;13.416;2023-09-19T12:24:30;26.80;33.20
80279;DHT22;70683;52.492;13.416;2023-09-19T12:27:03;26.30;33.50
80279;DHT22;70683;52.492;13.416;2023-09-19T12:29:32;26.10;34.50
80279;DHT22;70683;52.492;13.416;2023-09-19T12:32:02;26.00;33.80
80279;DHT22;70683;52.492;13.416;2023-09-19T12:34:30;25.90;34.30
80279;DHT22;70683;52.492;13.416;2023-09-19T12:37:11;25.90;34.60
80279;DHT22;70683;52.492;13.416;2023-09-19T12:39:39;25.80;34.40
80279;DHT22;70683;52.492;13.416;2023-09-19T12:42:09;25.80;33.30
80279;DHT22;70683;52.492;13.416;2023-09-19T12:44:37;25.70;33.50
80279;DHT22;70683;52.492;13.416;2023-09-19T12:47:11;25.70;33.70
80279;DHT22;70683;52.492;13.416;2023-09-19T12:52:12;25.60;34.30
80279;DHT22;70683;52.492;13.416;2023-09-19T12:54:40;25.60;35.10
80279;DHT22;70683;52.492;13.416;2023-09-19T12:57:07;25.50;34.30
80279;DHT22;70683;52.492;13.416;2023-09-19T12:59:33;25.50;34.30
80279;DHT22;70683;52.492;13.416;2023-09-19T13:02:04;25.60;34.60
80279;DHT22;70683;52.492;13.416;2023-09-19T13:04:33;25.60;34.40
80279;DHT22;70683;52.492;13.416;2023-09-19T13:07:00;25.50;34.90
80279;DHT22;70683;52.492;13.416;2023-09-19T13:09:28;25.50;35.30
80279;DHT22;70683;52.492;13.416;2023-09-19T13:11:56;25.30;35.50
80279;DHT22;70683;52.492;13.416;2023-09-19T13:14:26;25.30;35.70
80279;DHT22;70683;52.492;13.416;2023-09-19T13:17:12;25.10;36.10
80279;DHT22;70683;52.492;13.416;2023-09-19T13:19:48;25.10;36.80
80279;DHT22;70683;52.492;13.416;2023-09-19T13:24:56;24.80;36.70
80279;DHT22;70683;52.492;13.416;2023-09-19T13:27:24;24.70;36.50
80279;DHT22;70683;52.492;13.416;2023-09-19T13:29:53;24.70;37.50
80279;DHT22;70683;52.492;13.416;2023-09-19T13:32:19;24.60;36.80
80279;DHT22;70683;52.492;13.416;2023-09-19T13:34:46;24.60;36.50
80279;DHT22;70683;52.492;13.416;2023-09-19T13:37:12;24.50;37.40
80279;DHT22;70683;52.492;13.416;2023-09-19T13:39:40;24.60;37.70
80279;DHT22;70683;52.492;13.416;2023-09-19T13:42:08;24.70;37.40
80279;DHT22;70683;52.492;13.416;2023-09-19T13:44:37;24.70;37.20
80279;DHT22;70683;52.492;13.416;2023-09-19T13:47:05;24.60;37.20
80279;DHT22;70683;52.492;13.416;2023-09-19T13:49:33;24.40;37.30
80279;DHT22;70683;52.492;13.416;2023-09-19T13:52:01;24.30;37.70
80279;DHT22;70683;52.492;13.416;2023-09-19T13:54:29;24.30;38.10
80279;DHT22;70683;52.492;13.416;2023-09-19T13:56:56;24.40;38.10
80279;DHT22;70683;52.492;13.416;2023-09-19T13:59:23;24.20;37.80
80279;DHT22;70683;52.492;13.416;2023-09-19T14:01:50;24.30;37.60
80279;DHT22;70683;52.492;13.416;2023-09-19T14:04:19;24.30;37.90
80279;DHT22;70683;52.492;13.416;2023-09-19T14:06:48;24.30;38.30
80279;DHT22;70683;52.492;13.416;2023-09-19T14:09:14;24.20;37.70
80279;DHT22;70683;52.492;13.416;2023-09-19T14:11:42;24.20;38.30
80279;DHT22;70683;52.492;13.416;2023-09-19T14:14:11;24.20;37.90
80279;DHT22;70683;52.492;13.416;2023-09-19T14:16:37;24.20;37.90
80279;DHT22;70683;52.492;13.416;2023-09-19T14:19:05;24.30;38.40
80279;DHT22;70683;52.492;13.416;2023-09-19T14:21:34;24.30;38.30
80279;DHT22;70683;52.492;13.416;2023-09-19T14:24:03;24.30;38.80
80279;DHT22;70683;52.492;13.416;2023-09-19T14:26:30;24.30;37.90
80279;DHT22;70683;52.492;13.416;2023-09-19T14:28:56;24.30;38.30
80279;DHT22;70683;52.492;13.416;2023-09-19T14:31:23;24.20;37.90
80279;DHT22;70683;52.492;13.416;2023-09-19T14:33:58;24.10;38.90
80279;DHT22;70683;52.492;13.416;2023-09-19T14:36:25;24.10;38.60
80279;DHT22;70683;52.492;13.416;2023-09-19T14:38:53;24.00;38.70
80279;DHT22;70683;52.492;13.416;2023-09-19T14:41:20;24.00;38.70
80279;DHT22;70683;52.492;13.416;2023-09-19T14:43:49;24.00;39.00
80279;DHT22;70683;52.492;13.416;2023-09-19T14:46:15;24.00;39.30
80279;DHT22;70683;52.492;13.416;2023-09-19T14:48:42;23.90;39.40
80279;DHT22;70683;52.492;13.416;2023-09-19T14:51:10;23.90;39.60
80279;DHT22;70683;52.492;13.416;2023-09-19T14:53:37;23.90;39.20
80279;DHT22;70683;52.492;13.416;2023-09-19T14:56:05;23.80;39.60
80279;DHT22;70683;52.492;13.416;2023-09-19T14:58:34;23.70;40.00
80279;DHT22;70683;52.492;13.416;2023-09-19T15:01:05;23.60;39.40
80279;DHT22;70683;52.492;13.416;2023-09-19T15:03:33;23.50;39.50
80279;DHT22;70683;52.492;13.416;2023-09-19T15:06:02;23.50;39.60
80279;DHT22;70683;52.492;13.416;2023-09-19T15:08:31;23.50;40.10
80279;DHT22;70683;52.492;13.416;2023-09-19T15:11:01;23.50;39.40
80279;DHT22;70683;52.492;13.416;2023-09-19T15:13:31;23.40;39.50
80279;DHT22;70683;52.492;13.416;2023-09-19T15:16:00;23.40;39.80
80279;DHT22;70683;52.492;13.416;2023-09-19T15:18:28;23.40;40.00
80279;DHT22;70683;52.492;13.416;2023-09-19T15:21:00;23.40;40.20
80279;DHT22;70683;52.492;13.416;2023-09-19T15:23:27;23.30;39.70
80279;DHT22;70683;52.492;13.416;2023-09-19T15:25:55;23.30;39.80
80279;DHT22;70683;52.492;13.416;2023-09-19T15:28:22;23.20;39.90
80279;DHT22;70683;52.492;13.416;2023-09-19T15:30:49;23.20;40.30
80279;DHT22;70683;52.492;13.416;2023-09-19T15:33:16;23.20;40.50
80279;DHT22;70683;52.492;13.416;2023-09-19T15:35:43;23.10;40.60
80279;DHT22;70683;52.492;13.416;2023-09-19T15:38:10;23.00;40.80
80279;DHT22;70683;52.492;13.416;2023-09-19T15:40:46;23.00;40.80
80279;DHT22;70683;52.492;13.416;2023-09-19T15:43:13;22.90;40.90
80279;DHT22;70683;52.492;13.416;2023-09-19T15:45:40;22.90;41.10